Time;durP1;ratioP1;P1;durP2;ratioP2;P2;SDS_P1;SDS_P2;PMS_P1;PMS_P2;Temp;Humidity;BMP_temperature;BMP_pressure;BME280_temperature;BME280_humidity;BME280_pressure;Samples;Min_cycle;Max_cycle;Signal;HPM_P1;HPM_P2
2022/10/19 00:01:18;;;;;;;;;7.00;5.00;;;;;22.29;53.83;100375.94;5016678;28;48076;-73
2022/10/19 00:03:47;;;;;;;;;4.33;4.33;;;;;22.24;53.68;100365.41;5029130;28;45450;-73
2022/10/19 00:06:29;;;;;;;;;5.00;4.00;;;;;22.30;54.36;100377.66;5029983;28;45447;-73
2022/10/19 00:08:57;;;;;;;;;4.00;3.67;;;;;22.20;54.29;100361.00;5030535;28;45561;-72
2022/10/19 00:11:23;;;;;;;;;6.00;4.67;;;;;22.19;53.61;100363.69;5029808;28;46112;-72
2022/10/19 00:13:49;;;;;;;;;5.67;5.33;;;;;22.03;54.53;100342.72;5016734;28;45380;-72
2022/10/19 00:16:16;;;;;;;;;7.00;5.33;;;;;22.23;54.26;100376.03;5016326;28;45521;-73
2022/10/19 00:18:43;;;;;;;;;5.67;4.67;;;;;22.18;54.96;100373.47;5016334;28;45541;-73
2022/10/19 00:21:12;;;;;;;;;5.33;5.33;;;;;22.14;54.78;100370.88;5018235;28;46117;-73
2022/10/19 00:23:37;;;;;;;;;4.33;3.33;;;;;22.00;55.17;100358.75;5019371;28;45515;-72
2022/10/19 00:26:03;;;;;;;;;7.00;5.00;;;;;22.02;55.79;100358.72;5014784;28;45510;-72
2022/10/19 00:28:29;;;;;;;;;6.67;6.00;;;;;21.98;55.05;100360.53;5016583;28;45573;-73
2022/10/19 00:30:54;;;;;;;;;6.33;4.33;;;;;21.97;55.15;100361.47;5016869;28;45454;-73
2022/10/19 00:33:21;;;;;;;;;6.33;5.67;;;;;21.84;55.71;100341.34;5018288;28;45553;-73
2022/10/19 00:35:50;;;;;;;;;6.33;4.00;;;;;21.99;54.75;100357.00;5016799;28;45504;-73
2022/10/19 00:38:18;;;;;;;;;8.00;5.67;;;;;21.79;55.69;100311.31;5016414;28;45359;-73
2022/10/19 00:40:44;;;;;;;;;6.00;5.00;;;;;21.87;54.81;100330.66;5015610;28;45840;-73
2022/10/19 00:43:15;;;;;;;;;6.00;5.00;;;;;21.89;55.21;100338.59;5016194;28;45466;-73
2022/10/19 00:45:41;;;;;;;;;5.00;4.00;;;;;21.80;55.79;100334.31;5048550;28;46325;-73
2022/10/19 00:48:10;;;;;;;;;13.33;7.00;;;;;21.84;56.19;100336.00;5017078;28;45416;-72
2022/10/19 00:50:36;;;;;;;;;8.00;7.00;;;;;21.81;55.33;100320.13;5015565;28;46193;-73
2022/10/19 00:53:01;;;;;;;;;7.67;5.00;;;;;21.84;55.34;100333.34;5018962;28;45595;-73
2022/10/19 00:55:27;;;;;;;;;4.00;3.00;;;;;21.82;55.82;100327.19;5019043;28;45556;-72
2022/10/19 00:57:53;;;;;;;;;5.00;3.33;;;;;21.92;55.11;100344.72;5021508;28;45533;-73
2022/10/19 01:00:19;;;;;;;;;8.00;5.00;;;;;21.85;54.92;100328.03;5015182;28;45494;-73
2022/10/19 01:02:45;;;;;;;;;6.00;5.00;;;;;21.85;56.44;100332.47;5019419;28;45720;-73
2022/10/19 01:05:11;;;;;;;;;6.33;5.00;;;;;21.77;56.23;100318.44;5015768;28;45568;-73
2022/10/19 01:07:37;;;;;;;;;6.67;5.00;;;;;21.83;56.05;100335.16;5016629;28;45395;-72
2022/10/19 01:10:03;;;;;;;;;5.33;4.00;;;;;21.84;55.67;100326.28;5020831;28;45718;-73
2022/10/19 01:12:45;;;;;;;;;5.00;4.67;;;;;21.88;55.95;100329.72;5015074;28;45555;-73
2022/10/19 01:15:21;;;;;;;;;5.67;3.33;;;;;21.74;55.92;100310.53;5047034;28;45593;-73
2022/10/19 01:18:08;;;;;;;;;5.00;4.00;;;;;21.85;55.40;100316.50;5032895;28;45674;-72
2022/10/19 01:20:56;;;;;;;;;5.67;4.00;;;;;21.74;55.54;100299.88;5015629;28;46323;-73
2022/10/19 01:23:58;;;;;;;;;5.67;4.33;;;;;21.83;55.34;100310.34;5015792;28;45494;-72
2022/10/19 01:26:44;;;;;;;;;5.67;5.00;;;;;21.75;55.59;100291.88;5048302;28;45462;-73
2022/10/19 01:29:36;;;;;;;;;3.67;3.00;;;;;21.55;54.67;100263.03;5015297;28;45544;-73
2022/10/19 01:32:18;;;;;;;;;6.00;4.00;;;;;21.64;55.00;100292.09;5015355;28;45532;-72
2022/10/19 01:34:54;;;;;;;;;4.00;4.00;;;;;21.70;53.44;100287.56;5040165;28;45630;-73
2022/10/19 01:37:39;;;;;;;;;6.00;4.00;;;;;21.84;54.20;100304.09;5031712;28;45446;-72
2022/10/19 01:40:21;;;;;;;;;5.33;5.00;;;;;21.82;55.88;100288.19;5032957;28;45416;-73
2022/10/19 01:42:56;;;;;;;;;4.33;4.00;;;;;21.78;54.54;100283.84;5031724;28;45521;-73
2022/10/19 01:45:51;;;;;;;;;6.33;3.67;;;;;22.11;51.65;100285.84;5030642;28;45558;-73
2022/10/19 01:48:22;;;;;;;;;5.33;3.67;;;;;22.17;53.01;100291.03;5032288;28;45493;-73
2022/10/19 01:51:02;;;;;;;;;6.00;4.33;;;;;22.19;53.32;100286.53;5033197;28;45489;-73
2022/10/19 01:53:33;;;;;;;;;5.33;5.00;;;;;22.33;51.84;100275.63;5034029;28;45552;-73
2022/10/19 01:56:02;;;;;;;;;6.00;5.00;;;;;22.29;51.96;100256.19;5038154;28;45316;-73
2022/10/19 01:58:32;;;;;;;;;6.67;4.33;;;;;22.38;51.86;100263.97;5048587;28;45459;-72
2022/10/19 02:01:02;;;;;;;;;6.33;4.33;;;;;22.36;51.59;100254.25;5037175;28;45426;-72
2022/10/19 02:03:28;;;;;;;;;5.67;4.33;;;;;22.37;51.89;100224.94;5032628;28;45878;-73
2022/10/19 02:05:55;;;;;;;;;7.00;4.00;;;;;22.51;51.70;100248.56;5064732;28;45453;-72
2022/10/19 02:08:33;;;;;;;;;6.00;4.67;;;;;22.56;51.13;100245.78;5032916;28;45390;-73
2022/10/19 02:11:00;;;;;;;;;5.00;3.67;;;;;22.57;51.35;100237.78;5028503;28;45537;-73
2022/10/19 02:13:28;;;;;;;;;5.67;5.33;;;;;22.53;51.55;100221.91;5023170;28;45509;-73
2022/10/19 02:15:58;;;;;;;;;5.67;5.00;;;;;22.63;51.03;100229.63;5034944;28;45453;-72
2022/10/19 02:18:33;;;;;;;;;8.00;5.00;;;;;22.64;50.53;100223.41;5030647;28;45508;-73
2022/10/19 02:21:02;;;;;;;;;7.67;5.00;;;;;22.61;50.71;100211.94;5031587;28;45538;-73
2022/10/19 02:23:28;;;;;;;;;4.00;4.00;;;;;22.62;51.20;100200.38;5033092;28;45736;-73
2022/10/19 02:25:54;;;;;;;;;5.33;5.00;;;;;22.62;50.86;100205.69;5030913;28;45377;-73
2022/10/19 02:28:21;;;;;;;;;6.67;5.00;;;;;22.68;50.42;100215.31;5054215;28;45286;-73
2022/10/19 02:30:47;;;;;;;;;7.00;5.33;;;;;22.70;51.47;100221.47;5034303;28;45545;-73
2022/10/19 02:33:13;;;;;;;;;9.67;6.33;;;;;22.58;51.00;100201.38;5065019;28;48067;-72
2022/10/19 02:35:39;;;;;;;;;8.00;5.00;;;;;22.63;51.68;100207.47;5030570;28;45459;-72
2022/10/19 02:38:09;;;;;;;;;6.67;5.00;;;;;22.71;52.45;100212.59;5024893;28;45421;-73
2022/10/19 02:40:39;;;;;;;;;5.67;5.00;;;;;22.64;52.79;100209.19;5032309;28;45529;-72
2022/10/19 02:43:10;;;;;;;;;8.33;5.33;;;;;22.63;51.83;100204.81;5035885;28;45582;-73
2022/10/19 02:45:42;;;;;;;;;7.67;7.00;;;;;22.52;51.90;100180.22;5033300;28;45563;-72
2022/10/19 02:48:16;;;;;;;;;4.00;3.67;;;;;22.53;51.33;100185.53;5030482;28;45302;-73
2022/10/19 02:50:46;;;;;;;;;6.33;5.00;;;;;22.53;52.75;100184.66;5036877;28;45648;-73
2022/10/19 02:53:12;;;;;;;;;6.33;6.00;;;;;22.56;51.88;100190.78;5017601;28;46467;-73
2022/10/19 02:55:38;;;;;;;;;6.00;4.00;;;;;22.55;51.55;100183.69;5031632;28;45541;-73
2022/10/19 02:58:04;;;;;;;;;8.00;6.00;;;;;22.58;50.96;100169.41;5027641;28;45578;-73
2022/10/19 03:00:30;;;;;;;;;5.33;5.33;;;;;22.67;51.13;100192.28;5036579;28;45342;-72
2022/10/19 03:02:55;;;;;;;;;7.00;5.67;;;;;22.68;51.13;100180.72;5022999;28;45470;-73
2022/10/19 03:05:21;;;;;;;;;6.00;5.00;;;;;22.78;50.75;100182.22;5034506;28;45264;-73
2022/10/19 03:07:46;;;;;;;;;8.00;7.00;;;;;22.74;50.63;100159.25;5018829;28;45510;-73
2022/10/19 03:10:12;;;;;;;;;8.00;5.33;;;;;22.78;50.29;100171.56;5019308;28;45235;-73
2022/10/19 03:12:37;;;;;;;;;6.00;4.00;;;;;22.79;50.57;100163.53;5018836;28;45649;-73
2022/10/19 03:15:03;;;;;;;;;8.33;7.00;;;;;22.87;50.40;100170.47;5019065;28;45283;-72
2022/10/19 03:17:29;;;;;;;;;6.33;5.00;;;;;22.81;49.95;100153.72;5062751;28;45331;-72
2022/10/19 03:19:55;;;;;;;;;7.33;6.00;;;;;22.42;50.13;100083.75;5026791;28;45216;-73
2022/10/19 03:22:20;;;;;;;;;6.00;4.67;;;;;22.92;50.03;100153.44;5050680;28;45462;-73
2022/10/19 03:24:46;;;;;;;;;7.00;4.00;;;;;22.93;49.96;100146.31;5019047;28;45290;-73
2022/10/19 03:27:11;;;;;;;;;8.00;6.67;;;;;22.91;49.99;100145.50;5018045;28;45392;-73
2022/10/19 03:29:37;;;;;;;;;7.00;5.00;;;;;22.97;50.01;100151.53;5019019;28;45494;-72
2022/10/19 03:32:03;;;;;;;;;9.00;6.00;;;;;23.00;49.80;100159.44;5018321;28;45577;-73
2022/10/19 03:34:28;;;;;;;;;7.33;6.00;;;;;22.95;49.80;100137.38;5034206;28;45553;-72
2022/10/19 03:36:55;;;;;;;;;7.00;6.00;;;;;23.00;50.21;100145.25;5038725;28;45359;-73
2022/10/19 03:39:21;;;;;;;;;9.00;5.00;;;;;22.96;49.89;100143.56;5038341;28;45384;-73
2022/10/19 03:41:46;;;;;;;;;5.00;5.00;;;;;22.96;50.14;100125.81;5038663;28;45512;-73
2022/10/19 03:44:12;;;;;;;;;7.00;6.00;;;;;22.99;49.92;100127.50;5070852;28;45563;-72
2022/10/19 03:46:38;;;;;;;;;7.00;6.67;;;;;22.99;49.51;100124.84;5036943;28;45439;-72
2022/10/19 03:49:04;;;;;;;;;9.67;6.67;;;;;23.06;49.56;100123.81;5037133;28;45442;-73
2022/10/19 03:51:31;;;;;;;;;8.67;5.67;;;;;23.10;49.13;100125.47;5037784;28;45446;-72
2022/10/19 03:54:10;;;;;;;;;5.00;4.00;;;;;23.11;49.06;100113.00;5037956;28;45333;-73
2022/10/19 03:56:36;;;;;;;;;6.67;6.33;;;;;23.13;49.26;100113.84;5036961;28;45550;-73
2022/10/19 03:59:04;;;;;;;;;7.33;5.33;;;;;23.11;49.25;100091.69;5038219;28;45414;-73
2022/10/19 04:01:36;;;;;;;;;5.67;4.67;;;;;23.30;47.94;100102.66;5037070;28;46641;-73
2022/10/19 04:04:09;;;;;;;;;6.00;5.67;;;;;23.27;47.55;100076.13;5036916;28;45469;-73
2022/10/19 04:06:36;;;;;;;;;8.67;5.00;;;;;23.41;47.36;100072.09;5036014;28;45376;-72
2022/10/19 04:09:04;;;;;;;;;6.33;5.67;;;;;23.61;47.56;100092.81;5030238;28;45378;-73
2022/10/19 04:11:31;;;;;;;;;4.00;2.00;;;;;23.76;46.74;100082.63;5017618;28;45186;-73
2022/10/19 04:13:58;;;;;;;;;5.00;5.00;;;;;23.85;46.39;100077.00;5032544;28;45439;-72
2022/10/19 04:16:25;;;;;;;;;6.67;6.00;;;;;23.95;45.58;100073.09;5019790;28;45312;-73
2022/10/19 04:18:50;;;;;;;;;5.67;5.00;;;;;23.97;46.24;100062.38;5028141;28;45697;-73
2022/10/19 04:21:27;;;;;;;;;6.00;5.33;;;;;24.13;45.60;100082.34;5028255;28;45436;-73
2022/10/19 04:23:59;;;;;;;;;11.00;5.67;;;;;24.19;45.52;100076.78;5020362;28;45434;-73
2022/10/19 04:26:25;;;;;;;;;8.00;5.67;;;;;24.20;45.18;100066.97;5031324;28;45425;-73
2022/10/19 04:28:51;;;;;;;;;7.00;5.00;;;;;24.13;45.59;100054.75;5017624;28;45391;-73
2022/10/19 04:31:16;;;;;;;;;10.33;6.33;;;;;24.18;45.29;100053.66;5032827;28;46265;-73
2022/10/19 04:33:42;;;;;;;;;6.00;5.00;;;;;24.27;44.90;100049.81;5032268;28;45671;-73
2022/10/19 04:36:10;;;;;;;;;6.33;5.00;;;;;24.41;44.26;100065.34;5022369;28;45508;-73
2022/10/19 04:38:36;;;;;;;;;8.00;7.00;;;;;24.43;44.50;100058.16;5027193;28;45631;-73
2022/10/19 04:41:06;;;;;;;;;6.67;6.00;;;;;24.48;44.57;100053.53;5025171;28;47075;-72
2022/10/19 04:43:32;;;;;;;;;8.67;6.00;;;;;24.44;43.96;100032.34;5032360;28;45560;-73
2022/10/19 04:46:02;;;;;;;;;6.67;5.00;;;;;24.59;43.95;100037.16;5017370;28;45363;-73
2022/10/19 04:48:28;;;;;;;;;9.67;7.00;;;;;24.54;43.92;100031.13;5027570;28;45446;-73
2022/10/19 04:50:54;;;;;;;;;9.67;7.67;;;;;24.65;43.28;100036.06;5036946;28;46134;-73
2022/10/19 04:53:20;;;;;;;;;7.67;5.00;;;;;24.60;43.76;100020.22;5037422;28;45505;-72
2022/10/19 04:55:46;;;;;;;;;5.00;5.00;;;;;24.65;43.30;100028.94;5037228;28;45277;-73
2022/10/19 04:58:11;;;;;;;;;10.33;6.00;;;;;24.76;43.58;100033.88;5037871;28;45409;-73
2022/10/19 05:00:38;;;;;;;;;8.00;6.00;;;;;24.74;43.17;100031.25;5036114;28;46316;-73
2022/10/19 05:03:03;;;;;;;;;6.00;6.00;;;;;24.79;42.85;100015.94;5028162;28;46038;-73
2022/10/19 05:05:31;;;;;;;;;11.00;6.00;;;;;24.85;42.90;100032.66;5014813;28;45482;-72
2022/10/19 05:07:56;;;;;;;;;5.33;5.00;;;;;24.78;43.23;100019.53;5025365;28;45740;-73
2022/10/19 05:10:22;;;;;;;;;6.67;6.00;;;;;24.81;42.88;100027.44;5030303;28;45640;-73
2022/10/19 05:12:47;;;;;;;;;7.33;5.67;;;;;24.88;43.22;100038.75;5024295;28;45557;-73
2022/10/19 05:15:13;;;;;;;;;7.00;6.00;;;;;24.89;42.73;100032.50;5023035;28;45456;-72
2022/10/19 05:17:38;;;;;;;;;4.67;3.00;;;;;24.75;42.79;100019.66;5018009;28;45380;-73
2022/10/19 05:20:04;;;;;;;;;8.67;6.00;;;;;24.79;43.12;100025.78;5030243;28;47017;-73
2022/10/19 05:22:30;;;;;;;;;3.00;2.00;;;;;24.70;43.09;100007.41;5018533;28;45606;-73
2022/10/19 05:24:55;;;;;;;;;5.67;4.00;;;;;24.81;42.73;100031.94;5016355;28;45486;-73
2022/10/19 05:27:21;;;;;;;;;5.33;5.00;;;;;24.76;43.26;100023.19;5032552;28;45545;-73
2022/10/19 05:29:47;;;;;;;;;7.67;6.00;;;;;24.79;42.81;100010.59;5038085;28;45502;-72
2022/10/19 05:32:12;;;;;;;;;6.00;5.00;;;;;24.81;42.26;100021.25;5038909;28;45390;-73
2022/10/19 05:34:38;;;;;;;;;8.33;7.00;;;;;24.87;42.31;100017.44;5054601;28;45569;-73
2022/10/19 05:37:04;;;;;;;;;7.67;6.00;;;;;24.79;42.24;100007.94;5037531;28;45426;-73
2022/10/19 05:39:29;;;;;;;;;7.00;5.33;;;;;24.74;42.30;99995.66;5035200;28;46379;-73
2022/10/19 05:41:55;;;;;;;;;7.00;5.67;;;;;24.86;42.56;100021.06;5035454;28;45419;-73
2022/10/19 05:44:22;;;;;;;;;10.67;6.00;;;;;24.90;42.46;100015.53;5039604;28;45481;-73
2022/10/19 05:46:49;;;;;;;;;6.67;5.33;;;;;24.93;42.69;100011.88;5043463;28;45579;-73
2022/10/19 05:49:16;;;;;;;;;8.00;6.33;;;;;24.84;42.35;99993.53;5047969;28;46092;-72
2022/10/19 05:51:42;;;;;;;;;8.00;5.33;;;;;24.89;42.43;99994.22;5039896;28;46304;-73
2022/10/19 05:54:09;;;;;;;;;5.67;4.00;;;;;24.81;42.21;99979.38;5034887;28;45581;-72
2022/10/19 05:56:34;;;;;;;;;6.00;5.33;;;;;24.83;42.34;99981.97;5050011;28;45489;-73
2022/10/19 05:59:04;;;;;;;;;7.00;6.67;;;;;24.91;41.98;99985.22;5035617;28;45668;-73
2022/10/19 06:01:30;;;;;;;;;7.33;6.00;;;;;24.84;42.21;99996.19;5032938;28;45565;-72
2022/10/19 06:03:57;;;;;;;;;6.33;4.67;;;;;24.85;42.00;99992.59;5035587;28;45525;-73
2022/10/19 06:06:24;;;;;;;;;8.33;7.33;;;;;24.75;42.07;99984.03;5037483;28;45568;-73
2022/10/19 06:08:52;;;;;;;;;5.00;4.67;;;;;24.77;42.74;99987.53;5038829;28;46597;-73
2022/10/19 06:11:21;;;;;;;;;7.67;5.33;;;;;24.59;42.14;99960.59;5036156;28;45410;-73
2022/10/19 06:13:51;;;;;;;;;9.00;7.00;;;;;24.69;42.13;99957.56;5038951;28;45431;-73
2022/10/19 06:16:18;;;;;;;;;8.33;7.67;;;;;24.74;42.20;99980.50;5035856;28;45623;-72
2022/10/19 06:18:44;;;;;;;;;6.67;5.67;;;;;24.79;42.53;99975.88;5038222;28;46205;-73
2022/10/19 06:21:19;;;;;;;;;6.67;6.00;;;;;24.79;42.46;99970.53;5062524;28;45529;-73
2022/10/19 06:23:53;;;;;;;;;7.67;5.67;;;;;24.73;42.30;99961.84;5036743;28;45576;-73
2022/10/19 06:26:18;;;;;;;;;7.00;6.33;;;;;24.83;42.28;99967.72;5036396;28;45420;-73
2022/10/19 06:28:44;;;;;;;;;7.67;6.00;;;;;24.65;42.18;99937.25;5038479;28;45562;-73
2022/10/19 06:31:10;;;;;;;;;6.00;3.67;;;;;24.72;42.40;99952.13;5054031;28;45397;-72
2022/10/19 06:33:36;;;;;;;;;5.67;4.00;;;;;24.76;42.63;99959.09;5038683;28;45335;-73
2022/10/19 06:36:10;;;;;;;;;5.33;5.33;;;;;24.81;42.00;99967.81;5038919;28;45489;-73
2022/10/19 06:38:35;;;;;;;;;4.67;4.00;;;;;24.83;42.10;99949.03;5037711;28;46417;-73
2022/10/19 06:41:01;;;;;;;;;9.33;6.00;;;;;24.84;42.16;99966.81;5025429;28;45411;-73
2022/10/19 06:43:27;;;;;;;;;8.00;5.33;;;;;24.77;42.34;99951.03;5034686;28;45496;-76
2022/10/19 06:45:53;;;;;;;;;9.67;6.33;;;;;24.84;41.91;99950.78;5034124;28;45446;-71
2022/10/19 06:48:20;;;;;;;;;7.33;5.00;;;;;24.95;41.73;99943.25;5037406;28;46824;-73
2022/10/19 06:50:45;;;;;;;;;7.33;5.67;;;;;24.93;41.58;99935.28;5037172;28;46045;-73
2022/10/19 06:53:11;;;;;;;;;9.00;7.00;;;;;24.99;41.64;99945.72;5035275;28;46618;-75
2022/10/19 06:55:36;;;;;;;;;9.00;7.00;;;;;25.01;41.72;99943.00;5036575;28;45536;-74
2022/10/19 06:58:03;;;;;;;;;7.33;6.00;;;;;25.05;42.10;99944.63;5035101;28;45880;-73
2022/10/19 07:00:29;;;;;;;;;7.33;5.33;;;;;25.08;42.26;99956.97;5035916;28;45602;-72
2022/10/19 07:02:55;;;;;;;;;8.33;7.00;;;;;24.49;42.25;99860.38;5036494;28;45454;-73
2022/10/19 07:05:21;;;;;;;;;8.00;6.67;;;;;25.03;42.37;99957.16;5043136;28;45637;-73
2022/10/19 07:07:46;;;;;;;;;6.00;5.67;;;;;24.95;42.51;99933.41;5028060;28;45770;-74
2022/10/19 07:10:12;;;;;;;;;8.33;6.67;;;;;24.99;42.76;99944.84;5065954;28;45580;-73
2022/10/19 07:12:38;;;;;;;;;8.33;7.00;;;;;24.94;42.27;99934.31;5037279;28;45521;-73
2022/10/19 07:15:04;;;;;;;;;7.67;7.00;;;;;25.00;42.22;99936.75;5031877;28;45558;-74
2022/10/19 07:17:30;;;;;;;;;6.67;6.00;;;;;25.01;42.43;99940.31;5017575;28;46114;-73
2022/10/19 07:19:55;;;;;;;;;9.00;6.00;;;;;25.00;42.58;99930.53;5018017;28;45317;-73
2022/10/19 07:22:21;;;;;;;;;10.00;8.00;;;;;25.13;42.30;99941.66;5025378;28;45506;-74
2022/10/19 07:24:46;;;;;;;;;5.00;5.00;;;;;25.14;42.38;99932.69;5035002;28;45595;-73
2022/10/19 07:27:12;;;;;;;;;8.67;6.00;;;;;25.39;41.73;99959.34;5034004;28;47691;-72
2022/10/19 07:29:38;;;;;;;;;9.33;7.00;;;;;25.43;41.44;99944.00;5022203;28;45359;-73
2022/10/19 07:32:03;;;;;;;;;9.00;6.00;;;;;25.49;41.14;99941.97;5021945;28;45426;-72
2022/10/19 07:34:29;;;;;;;;;7.00;4.33;;;;;25.66;41.01;99954.63;5033088;28;45883;-73
2022/10/19 07:36:55;;;;;;;;;7.67;6.00;;;;;25.76;40.39;99944.41;5024898;28;46388;-72
2022/10/19 07:39:20;;;;;;;;;8.67;6.33;;;;;25.86;40.01;99940.41;5033885;28;45492;-73
2022/10/19 07:41:46;;;;;;;;;8.67;6.67;;;;;25.95;39.97;99926.66;5018157;28;46063;-72
2022/10/19 07:44:12;;;;;;;;;7.33;6.33;;;;;26.05;39.81;99927.16;5033458;28;45636;-73
2022/10/19 07:46:38;;;;;;;;;6.00;3.67;;;;;26.35;39.55;99946.31;5056365;28;46307;-73
2022/10/19 07:49:08;;;;;;;;;6.67;5.00;;;;;26.42;39.12;99935.31;5026515;28;45415;-72
2022/10/19 07:51:35;;;;;;;;;6.33;5.00;;;;;26.60;38.85;99939.91;5031584;28;45445;-72
2022/10/19 07:54:01;;;;;;;;;8.00;5.67;;;;;26.64;38.69;99941.50;5019219;28;45693;-73
2022/10/19 07:56:27;;;;;;;;;8.00;6.00;;;;;26.64;38.82;99941.50;5028545;28;45414;-72
2022/10/19 07:58:54;;;;;;;;;7.67;5.67;;;;;26.55;38.74;99932.03;5028351;28;45557;-72
2022/10/19 08:01:23;;;;;;;;;9.00;5.00;;;;;26.64;39.11;99938.81;5022143;28;45490;-73
2022/10/19 08:03:51;;;;;;;;;7.00;6.00;;;;;26.66;38.88;99928.00;5017804;28;45381;-73
2022/10/19 08:06:20;;;;;;;;;7.67;6.00;;;;;26.82;38.22;99917.44;5033465;28;46238;-73
2022/10/19 08:08:47;;;;;;;;;8.00;7.67;;;;;27.17;37.96;99929.16;5025051;28;45177;-73
2022/10/19 08:11:18;;;;;;;;;8.33;7.33;;;;;27.33;37.31;99919.44;5024963;28;45474;-73
2022/10/19 08:13:44;;;;;;;;;8.00;8.00;;;;;27.25;37.83;99910.91;5032131;28;45478;-73
2022/10/19 08:16:31;;;;;;;;;8.00;5.00;;;;;27.28;37.52;99916.13;5020486;28;45503;-73
2022/10/19 08:19:05;;;;;;;;;10.33;5.00;;;;;27.45;36.78;99914.41;5037177;28;45605;-73
2022/10/19 08:21:31;;;;;;;;;8.67;7.00;;;;;27.41;36.80;99911.00;5036104;28;45528;-73
2022/10/19 08:23:57;;;;;;;;;5.33;4.00;;;;;27.34;36.88;99909.59;5036687;28;45581;-73
2022/10/19 08:26:23;;;;;;;;;9.33;6.00;;;;;27.32;36.48;99906.13;5034531;28;45494;-72
2022/10/19 08:28:50;;;;;;;;;8.33;5.00;;;;;27.44;36.31;99902.84;5033192;28;45442;-72
2022/10/19 08:31:19;;;;;;;;;6.00;6.00;;;;;27.89;35.86;99916.69;5026675;28;45564;-73
2022/10/19 08:33:47;;;;;;;;;5.67;5.00;;;;;28.13;34.94;99898.41;5022934;28;45281;-73
2022/10/19 08:36:13;;;;;;;;;10.00;6.00;;;;;28.35;34.97;99908.88;5067307;28;47657;-73
2022/10/19 08:38:42;;;;;;;;;5.00;5.00;;;;;28.81;34.32;99913.56;5020888;28;45487;-72
2022/10/19 08:41:40;;;;;;;;;6.67;5.00;;;;;29.76;33.04;99923.44;5022007;28;46614;-73
2022/10/19 08:44:59;;;;;;;;;4.67;4.00;;;;;30.83;31.30;99921.31;4997631;28;45391;-73
2022/10/19 08:47:57;;;;;;;;;4.00;4.00;;;;;32.19;30.12;99910.47;4971483;28;45603;-72
2022/10/19 08:50:33;;;;;;;;;9.33;8.33;;;;;33.09;27.58;99905.84;5054333;28;45372;-72
2022/10/19 08:53:05;;;;;;;;;7.67;5.00;;;;;33.33;27.18;99877.94;5025297;28;45457;-73
2022/10/19 08:55:48;;;;;;;;;2.67;1.67;;;;;33.64;27.14;99882.72;5017063;28;45458;-73
2022/10/19 08:58:50;;;;;;;;;7.00;3.67;;;;;33.49;27.75;99895.59;5016296;28;45532;-73
2022/10/19 09:01:24;;;;;;;;;6.00;5.00;;;;;33.62;26.59;99881.13;5031510;28;45391;-73
2022/10/19 09:03:58;;;;;;;;;6.67;5.67;;;;;33.89;26.02;99888.97;5020254;28;45477;-73
2022/10/19 09:06:31;;;;;;;;;8.00;5.33;;;;;33.73;26.42;99899.28;5036244;28;45319;-72
2022/10/19 09:08:57;;;;;;;;;10.00;7.00;;;;;33.37;26.83;99882.13;5035442;28;45571;-74
2022/10/19 09:11:27;;;;;;;;;5.33;3.67;;;;;33.32;27.29;99889.72;5024236;28;45443;-73
2022/10/19 09:14:20;;;;;;;;;11.67;6.67;;;;;33.13;26.35;99891.13;5016675;28;45393;-72
2022/10/19 09:16:46;;;;;;;;;6.67;4.00;;;;;33.26;26.28;99888.34;5016433;28;45526;-73
2022/10/19 09:19:24;;;;;;;;;6.33;4.67;;;;;33.65;26.15;99891.75;5025887;28;47641;-73
2022/10/19 09:22:28;;;;;;;;;6.33;4.33;;;;;33.37;25.66;99883.00;5018107;28;45444;-73
2022/10/19 09:25:02;;;;;;;;;10.00;9.00;;;;;33.06;26.80;99895.22;5015501;28;45458;-73
2022/10/19 09:27:36;;;;;;;;;0.33;0.00;;;;;32.69;26.71;99890.69;5022089;28;45457;-73
2022/10/19 09:30:20;;;;;;;;;5.00;4.67;;;;;32.27;26.39;99881.06;5035161;28;46644;-72
2022/10/19 09:32:50;;;;;;;;;6.67;5.00;;;;;32.07;27.35;99887.88;5033400;28;45353;-73
2022/10/19 09:35:23;;;;;;;;;0.00;0.00;;;;;32.13;26.67;99878.50;5034286;28;45494;-72
2022/10/19 09:37:50;;;;;;;;;6.00;3.67;;;;;32.24;27.54;99882.16;5035419;28;45259;-72
2022/10/19 09:40:22;;;;;;;;;3.67;3.67;;;;;32.50;26.52;99865.91;5033866;28;45578;-73
2022/10/19 09:42:56;;;;;;;;;6.67;5.00;;;;;33.22;25.30;99860.63;5016074;28;45561;-73
2022/10/19 09:45:52;;;;;;;;;5.00;5.00;;;;;33.69;25.24;99871.56;5015996;28;45180;-73
2022/10/19 09:48:30;;;;;;;;;6.67;5.00;;;;;33.94;24.81;99875.91;5032791;28;45508;-73
2022/10/19 09:50:58;;;;;;;;;4.00;3.00;;;;;34.12;24.60;99856.47;5028383;28;45459;-73
2022/10/19 09:53:25;;;;;;;;;4.33;3.33;;;;;34.70;24.55;99851.84;5026049;28;45324;-72
2022/10/19 09:56:02;;;;;;;;;7.67;5.67;;;;;35.06;23.46;99853.34;5020555;28;45985;-72
2022/10/19 09:58:29;;;;;;;;;5.67;4.00;;;;;35.33;23.37;99859.34;5047368;28;45316;-73
2022/10/19 10:00:56;;;;;;;;;6.67;4.33;;;;;34.82;22.28;99860.84;5015501;28;45427;-73
2022/10/19 10:03:29;;;;;;;;;5.33;4.00;;;;;34.45;22.50;99842.09;5047854;28;45693;-73
2022/10/19 10:05:58;;;;;;;;;8.33;3.67;;;;;33.81;23.63;99867.03;5030742;28;45640;-73
2022/10/19 10:08:26;;;;;;;;;7.33;5.33;;;;;33.63;24.25;99861.22;5047950;28;45475;-76
2022/10/19 10:10:58;;;;;;;;;5.33;2.00;;;;;33.76;24.17;99848.41;5015509;28;46104;-73
2022/10/19 10:13:26;;;;;;;;;5.33;4.00;;;;;33.88;24.13;99866.44;5015654;28;45498;-73
2022/10/19 10:15:59;;;;;;;;;6.33;4.00;;;;;34.13;23.64;99877.19;5034055;28;46173;-75
2022/10/19 10:18:25;;;;;;;;;5.00;4.00;;;;;34.28;23.73;99873.28;5035313;28;45534;-73
2022/10/19 10:21:18;;;;;;;;;3.33;3.00;;;;;34.39;23.61;99877.84;5018702;28;46165;-74
2022/10/19 10:24:04;;;;;;;;;5.33;3.67;;;;;34.10;23.65;99881.00;5034161;28;45598;-73
2022/10/19 10:26:30;;;;;;;;;2.33;0.33;;;;;33.87;23.76;99870.13;5038812;28;45517;-73
2022/10/19 10:28:55;;;;;;;;;6.33;4.00;;;;;33.77;23.79;99874.53;5028909;28;45660;-72
2022/10/19 10:31:28;;;;;;;;;3.67;0.67;;;;;33.87;24.12;99863.84;5065390;28;47088;-73
2022/10/19 10:34:04;;;;;;;;;5.00;4.00;;;;;33.71;24.02;99856.06;5022021;28;45450;-76
2022/10/19 10:36:30;;;;;;;;;5.67;4.67;;;;;33.60;24.42;99878.50;5027050;28;45494;-76
2022/10/19 10:39:07;;;;;;;;;4.33;4.00;;;;;33.60;24.39;99872.22;5017179;28;45510;-73
2022/10/19 10:41:39;;;;;;;;;5.00;3.33;;;;;33.58;24.19;99876.91;5035784;28;47800;-72
2022/10/19 10:44:14;;;;;;;;;6.00;4.00;;;;;33.45;24.43;99869.72;5028967;28;45452;-73
2022/10/19 10:47:00;;;;;;;;;6.00;4.00;;;;;33.05;25.02;99879.97;5055904;28;45545;-73
2022/10/19 10:49:28;;;;;;;;;6.33;3.67;;;;;32.81;25.20;99896.16;5038457;28;45522;-73
2022/10/19 10:51:56;;;;;;;;;7.33;5.00;;;;;32.65;25.62;99872.97;5028136;28;47031;-73
2022/10/19 10:54:25;;;;;;;;;6.00;4.67;;;;;32.36;25.36;99876.88;5026350;28;45379;-73
2022/10/19 10:57:17;;;;;;;;;4.00;3.67;;;;;32.32;26.32;99891.56;5018155;28;45257;-75
2022/10/19 11:00:10;;;;;;;;;6.33;4.00;;;;;32.19;26.65;99892.44;5061914;28;45439;-73
2022/10/19 11:02:47;;;;;;;;;5.00;4.67;;;;;32.00;26.90;99870.38;5033935;28;46119;-73
2022/10/19 11:05:21;;;;;;;;;8.67;5.67;;;;;31.98;26.45;99883.13;5018856;28;45442;-73
2022/10/19 11:07:53;;;;;;;;;3.33;2.67;;;;;31.76;26.77;99881.91;5029698;28;45794;-73
2022/10/19 11:10:27;;;;;;;;;6.33;5.00;;;;;31.85;26.96;99886.69;5037911;28;45677;-72
2022/10/19 11:13:25;;;;;;;;;6.33;3.33;;;;;31.82;27.15;99870.66;5022817;28;45672;-73
2022/10/19 11:15:56;;;;;;;;;5.00;5.00;;;;;31.96;27.61;99883.22;5024548;28;45311;-72
2022/10/19 11:18:26;;;;;;;;;5.00;3.67;;;;;31.97;26.87;99862.47;5026798;28;45452;-73
2022/10/19 11:20:57;;;;;;;;;4.00;3.00;;;;;32.04;26.97;99859.25;5024086;28;45539;-73
2022/10/19 11:23:40;;;;;;;;;4.00;3.00;;;;;32.24;26.41;99881.31;5026364;28;45502;-73
2022/10/19 11:26:24;;;;;;;;;5.00;4.33;;;;;32.39;26.85;99879.34;5063899;28;45443;-73
2022/10/19 11:28:49;;;;;;;;;5.67;4.67;;;;;32.39;26.41;99884.75;5018000;28;45550;-73
2022/10/19 11:31:19;;;;;;;;;3.00;1.67;;;;;32.44;26.69;99888.00;5019472;28;45522;-73
2022/10/19 11:34:03;;;;;;;;;7.33;3.67;;;;;32.41;26.88;99853.94;5024111;28;46282;-72
2022/10/19 11:37:12;;;;;;;;;6.00;5.00;;;;;32.65;26.98;99855.84;5018065;28;45476;-73
2022/10/19 11:39:49;;;;;;;;;6.00;4.33;;;;;32.64;26.65;99867.66;5007627;28;45334;-72
2022/10/19 11:42:42;;;;;;;;;5.00;3.33;;;;;32.43;26.58;99840.28;5031337;28;45462;-73
2022/10/19 11:45:29;;;;;;;;;10.67;8.67;;;;;32.29;27.65;99855.69;5028091;28;45592;-72